createdAt,value
2023-02-04T00:00:18.034Z,4.10
2023-02-04T00:02:47.846Z,4.10
2023-02-04T00:05:17.818Z,4.10
2023-02-04T00:07:45.120Z,4.00
2023-02-04T00:10:12.553Z,4.00
2023-02-04T00:12:39.768Z,4.00
2023-02-04T00:15:07.793Z,4.00
2023-02-04T00:17:35.209Z,4.00
2023-02-04T00:20:02.790Z,4.00
2023-02-04T00:22:29.926Z,4.00
2023-02-04T00:24:57.396Z,4.00
2023-02-04T00:27:24.663Z,4.00
2023-02-04T00:29:51.871Z,4.00
2023-02-04T00:32:19.052Z,4.00
2023-02-04T00:34:46.539Z,4.00
2023-02-04T00:37:13.955Z,4.00
2023-02-04T00:39:41.322Z,4.00
2023-02-04T00:42:09.420Z,4.00
2023-02-04T00:44:37.340Z,4.00
2023-02-04T00:47:05.678Z,4.00
2023-02-04T00:49:34.955Z,3.90
2023-02-04T00:52:02.755Z,3.90
2023-02-04T00:54:30.380Z,3.90
2023-02-04T00:56:57.822Z,3.90
2023-02-04T00:59:25.275Z,3.90
2023-02-04T01:01:52.682Z,3.90
2023-02-04T01:04:19.991Z,3.90
2023-02-04T01:06:47.290Z,3.90
2023-02-04T01:09:14.716Z,3.90
2023-02-04T01:11:42.149Z,3.90
2023-02-04T01:14:09.335Z,3.90
2023-02-04T01:16:36.774Z,4.00
2023-02-04T01:19:04.737Z,4.00
2023-02-04T01:21:32.030Z,4.00
2023-02-04T01:24:02.179Z,4.10
2023-02-04T01:26:29.391Z,4.10
2023-02-04T01:28:56.669Z,4.10
2023-02-04T01:31:24.125Z,4.10
2023-02-04T01:33:51.468Z,4.10
2023-02-04T01:36:22.142Z,4.10
2023-02-04T01:38:49.885Z,4.10
2023-02-04T01:41:18.843Z,4.10
2023-02-04T01:43:48.003Z,4.10
2023-02-04T01:46:16.329Z,4.10
2023-02-04T01:48:43.990Z,4.10
2023-02-04T01:51:15.584Z,4.10
2023-02-04T01:53:44.008Z,4.10
2023-02-04T01:56:20.358Z,4.10
2023-02-04T01:58:48.716Z,4.00
2023-02-04T02:01:43.102Z,4.00
2023-02-04T02:04:12.540Z,4.00
2023-02-04T02:06:47.384Z,4.00
2023-02-04T02:09:14.809Z,4.00
2023-02-04T02:11:42.218Z,4.00
2023-02-04T02:14:09.642Z,4.00
2023-02-04T02:16:36.916Z,3.90
2023-02-04T02:19:06.048Z,3.90
2023-02-04T02:21:40.995Z,3.90
2023-02-04T02:24:29.192Z,3.90
2023-02-04T02:26:58.534Z,3.90
2023-02-04T02:29:27.296Z,3.90
2023-02-04T02:31:57.891Z,3.90
2023-02-04T02:34:27.676Z,3.90
2023-02-04T02:36:55.287Z,3.90
2023-02-04T02:39:23.089Z,3.90
2023-02-04T02:41:50.437Z,3.90
2023-02-04T02:44:18.474Z,3.90
2023-02-04T02:46:46.064Z,3.90
2023-02-04T02:49:18.505Z,3.90
2023-02-04T02:51:46.291Z,3.90
2023-02-04T02:54:25.674Z,3.80
2023-02-04T02:56:53.806Z,3.80
2023-02-04T02:59:21.312Z,3.90
2023-02-04T03:01:52.722Z,3.90
2023-02-04T03:04:22.077Z,3.90
2023-02-04T03:06:50.083Z,3.80
2023-02-04T03:09:17.944Z,3.90
2023-02-04T03:11:45.368Z,3.90
2023-02-04T03:14:12.590Z,3.90
2023-02-04T03:16:40.635Z,3.90
2023-02-04T03:19:08.735Z,3.90
2023-02-04T03:21:36.710Z,3.90
2023-02-04T03:24:04.666Z,3.90
2023-02-04T03:26:32.119Z,3.90
2023-02-04T03:29:00.325Z,3.90
2023-02-04T03:31:27.838Z,3.90
2023-02-04T03:33:57.365Z,3.90
2023-02-04T03:36:24.784Z,3.90
2023-02-04T03:38:52.673Z,3.90
2023-02-04T03:41:20.032Z,3.90
2023-02-04T03:43:47.334Z,3.80
2023-02-04T03:46:14.827Z,3.80
2023-02-04T03:48:42.082Z,3.80
2023-02-04T03:51:09.271Z,3.90
2023-02-04T03:53:36.630Z,3.90
2023-02-04T03:56:04.319Z,3.90
2023-02-04T03:58:31.714Z,3.90
2023-02-04T04:00:59.231Z,3.90
2023-02-04T04:03:26.412Z,3.90
2023-02-04T04:05:53.768Z,3.90
2023-02-04T04:08:20.973Z,3.90
2023-02-04T04:10:48.234Z,3.90
2023-02-04T04:13:15.837Z,3.90
2023-02-04T04:15:43.133Z,3.90
2023-02-04T04:18:10.427Z,3.90
2023-02-04T04:20:37.606Z,3.90
2023-02-04T04:23:04.741Z,3.90
2023-02-04T04:25:31.800Z,3.90
2023-02-04T04:27:59.114Z,3.90
2023-02-04T04:30:26.263Z,3.90
2023-02-04T04:32:53.452Z,3.90
2023-02-04T04:35:20.593Z,3.80
2023-02-04T04:37:47.940Z,3.90
2023-02-04T04:40:15.175Z,3.90
2023-02-04T04:42:42.651Z,3.90
2023-02-04T04:45:11.110Z,3.90
2023-02-04T04:47:38.353Z,3.90
2023-02-04T04:50:06.032Z,3.90
2023-02-04T04:52:33.351Z,4.00
2023-02-04T04:55:00.632Z,3.90
2023-02-04T04:57:28.625Z,4.00
2023-02-04T04:59:56.072Z,3.90
2023-02-04T05:02:26.175Z,3.90
2023-02-04T05:04:53.510Z,3.80
2023-02-04T05:07:20.672Z,3.80
2023-02-04T05:09:47.790Z,3.80
2023-02-04T05:12:14.961Z,3.70
2023-02-04T05:14:42.435Z,3.70
2023-02-04T05:17:09.745Z,3.70
2023-02-04T05:19:37.372Z,3.70
2023-02-04T05:22:04.597Z,3.60
2023-02-04T05:24:31.930Z,3.60
2023-02-04T05:26:59.086Z,3.60
2023-02-04T05:29:26.349Z,3.50
2023-02-04T05:31:53.947Z,3.50
2023-02-04T05:34:21.322Z,3.40
2023-02-04T05:36:48.678Z,3.40
2023-02-04T05:39:16.080Z,3.30
2023-02-04T05:41:44.355Z,3.20
2023-02-04T05:44:11.479Z,3.10
2023-02-04T05:46:39.657Z,3.00
2023-02-04T05:49:07.823Z,2.90
2023-02-04T05:51:35.227Z,2.80
2023-02-04T05:54:02.498Z,2.70
2023-02-04T05:56:30.511Z,2.70
2023-02-04T05:58:57.721Z,2.60
2023-02-04T06:01:25.072Z,2.60
2023-02-04T06:03:52.383Z,2.60
2023-02-04T06:06:19.765Z,2.60
2023-02-04T06:08:47.169Z,2.60
2023-02-04T06:11:14.509Z,2.60
2023-02-04T06:13:41.880Z,2.60
2023-02-04T06:16:09.134Z,2.60
2023-02-04T06:18:36.394Z,2.60
2023-02-04T06:21:06.113Z,2.60
2023-02-04T06:23:34.872Z,2.50
2023-02-04T06:26:05.511Z,2.50
2023-02-04T06:28:32.800Z,2.50
2023-02-04T06:31:00.017Z,2.40
2023-02-04T06:33:27.512Z,2.40
2023-02-04T06:35:54.793Z,2.50
2023-02-04T06:38:22.264Z,2.50
2023-02-04T06:40:49.680Z,2.50
2023-02-04T06:43:17.037Z,2.50
2023-02-04T06:45:44.300Z,2.50
2023-02-04T06:48:11.642Z,2.50
2023-02-04T06:50:38.866Z,2.50
2023-02-04T06:53:05.961Z,2.50
2023-02-04T06:55:33.157Z,2.50
2023-02-04T06:58:00.384Z,2.60
2023-02-04T07:00:27.809Z,2.60
2023-02-04T07:02:58.154Z,2.60
2023-02-04T07:05:25.841Z,2.60
2023-02-04T07:07:52.988Z,2.60
2023-02-04T07:10:21.245Z,2.50
2023-02-04T07:12:48.427Z,2.50
2023-02-04T07:15:18.502Z,2.50
2023-02-04T07:17:45.649Z,2.50
2023-02-04T07:20:12.993Z,2.50
2023-02-04T07:22:40.358Z,2.50
2023-02-04T07:25:07.804Z,2.50
2023-02-04T07:27:34.960Z,2.50
2023-02-04T07:30:02.498Z,2.60
2023-02-04T07:32:33.067Z,2.60
2023-02-04T07:35:01.053Z,2.60
2023-02-04T07:37:28.290Z,2.70
2023-02-04T07:39:55.559Z,2.80
2023-02-04T07:42:23.147Z,2.80
2023-02-04T07:44:50.449Z,2.90
2023-02-04T07:47:17.551Z,3.00
2023-02-04T07:49:44.778Z,3.00
2023-02-04T07:52:12.623Z,3.10
2023-02-04T07:54:43.299Z,3.10
2023-02-04T07:57:10.650Z,3.10
2023-02-04T07:59:37.817Z,3.10
2023-02-04T08:02:05.124Z,3.10
2023-02-04T08:04:32.555Z,3.10
2023-02-04T08:06:59.672Z,3.10
2023-02-04T08:09:27.515Z,3.20
2023-02-04T08:11:54.778Z,3.20
2023-02-04T08:14:22.001Z,3.30
2023-02-04T08:16:49.219Z,3.30
2023-02-04T08:19:19.254Z,3.30
2023-02-04T08:21:46.992Z,3.30
2023-02-04T08:24:15.212Z,3.30
2023-02-04T08:26:43.574Z,3.30
2023-02-04T08:29:11.366Z,3.30
2023-02-04T08:31:39.108Z,3.40
2023-02-04T08:34:06.837Z,3.40
2023-02-04T08:36:34.274Z,3.40
2023-02-04T08:39:02.144Z,3.40
2023-02-04T08:41:29.490Z,3.50
2023-02-04T08:43:57.386Z,3.50
2023-02-04T08:46:24.782Z,3.50
2023-02-04T08:48:54.802Z,3.50
2023-02-04T08:51:22.165Z,3.50
2023-02-04T08:53:49.696Z,3.50
2023-02-04T08:56:19.359Z,3.50
2023-02-04T08:58:48.379Z,3.50
2023-02-04T09:01:15.831Z,3.50
2023-02-04T09:03:43.043Z,3.50
2023-02-04T09:06:10.482Z,3.50
2023-02-04T09:08:37.816Z,3.50
2023-02-04T09:11:05.237Z,3.40
2023-02-04T09:13:36.108Z,3.50
2023-02-04T09:16:03.539Z,3.50
2023-02-04T09:18:32.984Z,3.50
2023-02-04T09:21:00.460Z,3.60
2023-02-04T09:23:27.846Z,3.60
2023-02-04T09:25:58.316Z,3.70
2023-02-04T09:28:25.491Z,3.70
2023-02-04T09:30:52.987Z,3.70
2023-02-04T09:33:20.289Z,3.70
2023-02-04T09:35:47.675Z,3.80
2023-02-04T09:38:14.956Z,3.80
2023-02-04T09:40:47.176Z,3.80
2023-02-04T09:43:18.927Z,3.90
2023-02-04T09:45:46.194Z,4.00
2023-02-04T09:48:14.964Z,4.00
2023-02-04T09:50:43.632Z,4.00
2023-02-04T09:53:16.412Z,4.00
2023-02-04T09:55:46.028Z,4.00
2023-02-04T09:58:24.160Z,4.10
2023-02-04T10:01:12.213Z,4.10
2023-02-04T10:03:46.782Z,4.10
2023-02-04T10:06:19.461Z,4.20
2023-02-04T10:08:49.362Z,4.20
2023-02-04T10:11:18.899Z,4.20
2023-02-04T10:13:50.531Z,4.20
2023-02-04T10:16:21.765Z,4.20
2023-02-04T10:18:49.000Z,4.20
2023-02-04T10:21:23.144Z,4.20
2023-02-04T10:23:56.214Z,4.30
2023-02-04T10:26:26.228Z,4.40
2023-02-04T10:29:03.458Z,4.40
2023-02-04T10:31:34.630Z,4.50
2023-02-04T10:34:24.647Z,4.50
2023-02-04T10:36:57.936Z,4.60
2023-02-04T10:39:30.468Z,4.60
2023-02-04T10:42:01.321Z,4.60
2023-02-04T10:44:31.790Z,4.70
2023-02-04T10:47:07.199Z,4.70
2023-02-04T10:49:34.697Z,4.70
2023-02-04T10:52:02.893Z,4.70
2023-02-04T10:54:36.281Z,4.70
2023-02-04T10:57:29.190Z,4.80
2023-02-04T11:00:02.559Z,4.80
2023-02-04T11:02:46.294Z,4.80
2023-02-04T11:05:15.517Z,4.90
2023-02-04T11:07:42.840Z,4.90
2023-02-04T11:10:15.435Z,4.90
2023-02-04T11:12:46.215Z,4.90
2023-02-04T11:15:40.883Z,5.00
2023-02-04T11:18:14.274Z,5.00
2023-02-04T11:20:41.726Z,5.00
2023-02-04T11:23:26.113Z,5.00
2023-02-04T11:26:10.274Z,5.00
2023-02-04T11:28:49.375Z,5.00
2023-02-04T11:31:23.080Z,5.00
2023-02-04T11:34:02.684Z,4.90
2023-02-04T11:36:30.911Z,4.90
2023-02-04T11:39:07.232Z,4.90
2023-02-04T11:41:34.369Z,4.90
2023-02-04T11:44:01.894Z,4.90
2023-02-04T11:46:30.287Z,4.90
2023-02-04T11:48:59.048Z,4.90
2023-02-04T11:51:32.979Z,4.90
2023-02-04T11:54:00.394Z,4.90
2023-02-04T11:56:30.657Z,4.90
2023-02-04T11:58:59.239Z,4.90
2023-02-04T12:01:32.785Z,4.90
2023-02-04T12:04:01.984Z,4.90
2023-02-04T12:06:33.271Z,4.90
2023-02-04T12:09:27.749Z,4.90
2023-02-04T12:11:57.919Z,4.90
2023-02-04T12:14:37.206Z,4.90
2023-02-04T12:17:19.191Z,4.90
2023-02-04T12:19:46.456Z,4.90
2023-02-04T12:22:15.119Z,4.90
2023-02-04T12:24:43.046Z,4.90
2023-02-04T12:27:10.166Z,5.00
2023-02-04T12:29:37.362Z,5.00
2023-02-04T12:32:05.062Z,5.00
2023-02-04T12:34:32.394Z,5.00
2023-02-04T12:36:59.569Z,5.00
2023-02-04T12:39:26.746Z,5.00
2023-02-04T12:41:53.868Z,5.00
2023-02-04T12:44:20.999Z,5.00
2023-02-04T12:46:51.807Z,5.00
2023-02-04T12:49:19.130Z,5.00
2023-02-04T12:51:48.349Z,4.90
2023-02-04T12:54:15.439Z,4.90
2023-02-04T12:56:42.523Z,4.90
2023-02-04T12:59:09.759Z,4.90
2023-02-04T13:01:36.869Z,4.90
2023-02-04T13:04:04.072Z,4.90
2023-02-04T13:06:31.283Z,4.80
2023-02-04T13:08:58.657Z,4.80
2023-02-04T13:11:25.989Z,4.80
2023-02-04T13:13:53.373Z,4.80
2023-02-04T13:16:23.228Z,4.90
2023-02-04T13:18:50.886Z,4.90
2023-02-04T13:21:20.913Z,4.90
2023-02-04T13:23:48.343Z,4.90
2023-02-04T13:26:15.604Z,4.90
2023-02-04T13:28:43.400Z,4.90
2023-02-04T13:31:10.607Z,4.80
2023-02-04T13:33:37.926Z,4.80
2023-02-04T13:36:05.766Z,4.70
2023-02-04T13:38:32.905Z,4.70
2023-02-04T13:41:00.240Z,4.70
2023-02-04T13:43:27.525Z,4.70
2023-02-04T13:45:55.366Z,4.70
2023-02-04T13:48:25.578Z,4.70
2023-02-04T13:50:52.821Z,4.70
2023-02-04T13:53:22.713Z,4.70
2023-02-04T13:55:49.968Z,4.70
2023-02-04T13:58:17.208Z,4.70
2023-02-04T14:00:44.445Z,4.70
2023-02-04T14:03:11.677Z,4.70
2023-02-04T14:05:39.175Z,4.70
2023-02-04T14:08:06.436Z,4.70
2023-02-04T14:10:34.423Z,4.70
2023-02-04T14:13:02.706Z,4.70
2023-02-04T14:15:29.914Z,4.70
2023-02-04T14:17:57.319Z,4.70
2023-02-04T14:20:24.671Z,4.70
2023-02-04T14:22:52.000Z,4.70
2023-02-04T14:25:19.164Z,4.70
2023-02-04T14:27:46.662Z,4.60
2023-02-04T14:30:19.702Z,4.60
2023-02-04T14:32:47.144Z,4.60
2023-02-04T14:35:15.607Z,4.60
2023-02-04T14:37:42.986Z,4.70
2023-02-04T14:40:11.604Z,4.70
2023-02-04T14:42:39.178Z,4.70
2023-02-04T14:45:08.562Z,4.70
2023-02-04T14:47:36.641Z,4.70
2023-02-04T14:50:05.172Z,4.60
2023-02-04T14:52:32.378Z,4.60
2023-02-04T14:54:59.712Z,4.60
2023-02-04T14:57:29.092Z,4.60
2023-02-04T14:59:59.250Z,4.60
2023-02-04T15:02:26.541Z,4.60
2023-02-04T15:04:53.717Z,4.60
2023-02-04T15:07:20.902Z,4.50
2023-02-04T15:09:48.533Z,4.60
2023-02-04T15:12:15.699Z,4.50
2023-02-04T15:14:43.093Z,4.50
2023-02-04T15:17:10.587Z,4.50
2023-02-04T15:19:37.856Z,4.50
2023-02-04T15:22:05.157Z,4.40
2023-02-04T15:24:32.604Z,4.40
2023-02-04T15:26:59.718Z,4.40
2023-02-04T15:29:27.133Z,4.40
2023-02-04T15:31:54.492Z,4.30
2023-02-04T15:34:21.738Z,4.30
2023-02-04T15:36:49.288Z,4.30
2023-02-04T15:39:16.659Z,4.30
2023-02-04T15:41:45.009Z,4.20
2023-02-04T15:44:13.394Z,4.20
2023-02-04T15:46:40.766Z,4.20
2023-02-04T15:49:09.285Z,4.10
2023-02-04T15:51:36.671Z,4.10
2023-02-04T15:54:04.105Z,4.10
2023-02-04T15:56:31.416Z,4.00
2023-02-04T15:59:00.957Z,3.90
2023-02-04T16:01:29.466Z,3.90
2023-02-04T16:03:57.588Z,3.80
2023-02-04T16:06:25.186Z,3.80
2023-02-04T16:08:52.543Z,3.70
2023-02-04T16:11:23.246Z,3.60
2023-02-04T16:13:52.000Z,3.50
2023-02-04T16:16:19.858Z,3.40
2023-02-04T16:18:47.138Z,3.40
2023-02-04T16:21:14.426Z,3.40
2023-02-04T16:23:43.494Z,3.30
2023-02-04T16:26:10.824Z,3.30
2023-02-04T16:28:37.847Z,3.30
2023-02-04T16:31:05.709Z,3.20
2023-02-04T16:33:32.928Z,3.20
2023-02-04T16:36:10.913Z,3.20
2023-02-04T16:38:39.867Z,3.20
2023-02-04T16:41:08.417Z,3.20
2023-02-04T16:43:39.097Z,3.20
2023-02-04T16:46:06.448Z,3.20
2023-02-04T16:48:33.651Z,3.20
2023-02-04T16:51:05.227Z,3.10
2023-02-04T16:53:33.593Z,3.10
2023-02-04T16:56:02.504Z,3.10
2023-02-04T16:58:29.677Z,3.10
2023-02-04T17:00:58.083Z,3.10
2023-02-04T17:03:25.419Z,3.00
2023-02-04T17:05:52.710Z,3.00
2023-02-04T17:08:20.098Z,3.00
2023-02-04T17:11:06.363Z,3.00
2023-02-04T17:13:36.279Z,3.00
2023-02-04T17:16:03.714Z,3.00
2023-02-04T17:18:32.011Z,3.00
2023-02-04T17:20:59.840Z,2.90
2023-02-04T17:23:28.545Z,2.90
2023-02-04T17:25:55.954Z,2.90
2023-02-04T17:28:24.413Z,2.90
2023-02-04T17:30:51.670Z,2.90
2023-02-04T17:33:21.232Z,3.00
2023-02-04T17:35:48.852Z,2.90
2023-02-04T17:38:18.832Z,2.90
2023-02-04T17:40:46.759Z,2.90
2023-02-04T17:43:13.929Z,2.90
2023-02-04T17:45:41.117Z,2.90
2023-02-04T17:48:08.438Z,2.90
2023-02-04T17:53:10.591Z,2.90
2023-02-04T17:55:39.720Z,2.90
2023-02-04T17:58:16.542Z,2.80
2023-02-04T18:00:46.470Z,2.80
2023-02-04T18:03:16.621Z,2.80
2023-02-04T18:05:50.204Z,2.80
2023-02-04T18:08:40.533Z,2.70
2023-02-04T18:11:18.168Z,2.70
2023-02-04T18:13:45.524Z,2.70
2023-02-04T18:16:22.529Z,2.70
2023-02-04T18:18:52.023Z,2.70
2023-02-04T18:21:38.941Z,2.60
2023-02-04T18:24:24.492Z,2.60
2023-02-04T18:26:52.797Z,2.60
2023-02-04T18:29:27.112Z,2.60
2023-02-04T18:32:01.273Z,2.60
2023-02-04T18:34:40.959Z,2.60
2023-02-04T18:37:34.226Z,2.60
2023-02-04T18:40:10.718Z,2.60
2023-02-04T18:42:40.935Z,2.60
2023-02-04T18:45:31.831Z,2.60
2023-02-04T18:48:20.886Z,2.50
2023-02-04T18:50:50.080Z,2.50
2023-02-04T18:53:22.778Z,2.50
2023-02-04T18:55:58.919Z,2.40
2023-02-04T18:58:39.898Z,2.50
2023-02-04T19:01:22.301Z,2.40
2023-02-04T19:03:49.662Z,2.40
2023-02-04T19:06:43.936Z,2.40
2023-02-04T19:09:11.096Z,2.40
2023-02-04T19:11:43.562Z,2.40
2023-02-04T19:14:36.966Z,2.30
2023-02-04T19:17:29.428Z,2.30
2023-02-04T19:20:02.796Z,2.30
2023-02-04T19:22:43.526Z,2.30
2023-02-04T19:25:33.164Z,2.20
2023-02-04T19:28:25.169Z,2.20
2023-02-04T19:31:07.187Z,2.10
2023-02-04T19:33:40.085Z,2.10
2023-02-04T19:36:35.988Z,2.10
2023-02-04T19:39:25.669Z,2.10
2023-02-04T19:41:54.323Z,2.00
2023-02-04T19:44:27.289Z,2.00
2023-02-04T19:46:54.521Z,2.00
2023-02-04T19:49:28.779Z,2.00
2023-02-04T19:52:01.781Z,1.90
2023-02-04T19:54:47.073Z,1.90
2023-02-04T19:57:26.381Z,1.90
2023-02-04T19:59:56.336Z,1.90
2023-02-04T20:02:29.771Z,1.90
2023-02-04T20:04:57.284Z,1.90
2023-02-04T20:07:30.148Z,1.80
2023-02-04T20:10:06.729Z,1.80
2023-02-04T20:12:34.236Z,1.90
2023-02-04T20:15:14.000Z,1.80
2023-02-04T20:17:46.109Z,1.80
2023-02-04T20:20:16.614Z,1.80
2023-02-04T20:22:47.718Z,1.70
2023-02-04T20:25:21.188Z,1.80
2023-02-04T20:27:57.488Z,1.80
2023-02-04T20:30:28.847Z,1.80
2023-02-04T20:32:58.715Z,1.70
2023-02-04T20:36:11.669Z,1.80
2023-02-04T20:38:39.284Z,1.70
2023-02-04T20:41:21.478Z,1.80
2023-02-04T20:43:51.897Z,1.70
2023-02-04T20:46:25.896Z,1.70
2023-02-04T20:48:53.183Z,1.70
2023-02-04T20:51:23.663Z,1.70
2023-02-04T20:53:59.605Z,1.70
2023-02-04T20:56:30.110Z,1.70
2023-02-04T20:59:12.739Z,1.70
2023-02-04T21:01:51.580Z,1.70
2023-02-04T21:04:18.720Z,1.70
2023-02-04T21:06:47.027Z,1.60
2023-02-04T21:09:34.568Z,1.60
2023-02-04T21:12:03.002Z,1.60
2023-02-04T21:14:30.799Z,1.60
2023-02-04T21:16:58.183Z,1.60
2023-02-04T21:19:28.072Z,1.50
2023-02-04T21:21:57.747Z,1.40
2023-02-04T21:24:26.256Z,1.40
2023-02-04T21:26:56.315Z,1.40
2023-02-04T21:29:23.537Z,1.40
2023-02-04T21:31:51.103Z,1.50
2023-02-04T21:34:18.164Z,1.50
2023-02-04T21:36:45.308Z,1.50
2023-02-04T21:39:12.432Z,1.40
2023-02-04T21:41:39.705Z,1.40
2023-02-04T21:44:07.034Z,1.50
2023-02-04T21:46:34.291Z,1.50
2023-02-04T21:49:01.555Z,1.40
2023-02-04T21:51:28.926Z,1.40
2023-02-04T21:53:56.027Z,1.30
2023-02-04T21:56:23.477Z,1.20
2023-02-04T21:58:50.812Z,1.30
2023-02-04T22:01:17.932Z,1.20
2023-02-04T22:03:45.057Z,1.30
2023-02-04T22:06:12.364Z,1.30
2023-02-04T22:08:39.411Z,1.20
2023-02-04T22:11:06.695Z,1.10
2023-02-04T22:13:52.253Z,1.10
2023-02-04T22:16:19.438Z,1.10
2023-02-04T22:18:46.605Z,1.00
2023-02-04T22:21:13.722Z,1.10
2023-02-04T22:23:40.979Z,1.10
2023-02-04T22:26:09.055Z,1.10
2023-02-04T22:28:36.227Z,1.10
2023-02-04T22:31:03.684Z,1.10
2023-02-04T22:33:30.951Z,1.10
2023-02-04T22:35:58.512Z,1.10
2023-02-04T22:38:31.506Z,1.10
2023-02-04T22:40:58.701Z,1.10
2023-02-04T22:43:26.074Z,1.00
2023-02-04T22:45:53.282Z,1.00
2023-02-04T22:48:20.614Z,1.00
2023-02-04T22:50:47.897Z,0.80
2023-02-04T22:53:15.293Z,0.80
2023-02-04T22:55:42.533Z,0.70
2023-02-04T22:58:09.993Z,0.70
2023-02-04T23:00:37.360Z,0.60
2023-02-04T23:03:07.459Z,0.60
2023-02-04T23:05:34.864Z,0.60
2023-02-04T23:08:02.372Z,0.60
2023-02-04T23:10:29.745Z,0.50
2023-02-04T23:12:57.114Z,0.50
2023-02-04T23:15:24.328Z,0.40
2023-02-04T23:17:52.770Z,0.50
2023-02-04T23:20:20.100Z,0.40
2023-02-04T23:22:47.564Z,0.40
2023-02-04T23:25:14.822Z,0.40
2023-02-04T23:27:42.211Z,0.40
2023-02-04T23:30:10.849Z,0.40
2023-02-04T23:32:38.084Z,0.30
2023-02-04T23:35:06.708Z,0.30
2023-02-04T23:37:35.050Z,0.30
2023-02-04T23:40:02.376Z,0.20
2023-02-04T23:42:31.480Z,0.20
2023-02-04T23:44:59.158Z,0.10
2023-02-04T23:47:26.294Z,0.00
2023-02-04T23:49:53.377Z,-0.10
2023-02-04T23:52:20.893Z,-0.10
2023-02-04T23:54:48.166Z,-0.10
2023-02-04T23:57:15.551Z,-0.10
2023-02-04T23:59:42.744Z,-0.10
